Chance, Alabama
Current Conditions -  °F | °C
As of 3:53 PM on Saturday 20 Dec 2014 (Local Time) from KGZH Reporting Station
Haze Haze  
Wind Chill: 51°   Ceiling: 600
Heat Index: 51°   Visibility: 6mi
Dew Point: 48°   Wind: 6mph
Humidity: 89%   Direction: 10°N
Pressure: 30.14"   Gusts: NA
Location:  31.8534°N, 87.5753°W
Report Text: KGZH 202153Z AUTO 01005KT 6SM BR OVC006 11/09 A3014 RMK AO2 SLP205 T01060089
Loading
Personal Weather Stations






























Interactive Weather Map New forecast layout! Learn more

10-Day Weather Forecast

Advertisements
Track Severe Weather on mobile